Time;durP1;ratioP1;P1;durP2;ratioP2;P2;SDS_P1;SDS_P2;PMS_P1;PMS_P2;Temp;Humidity;BMP_temperature;BMP_pressure;BME280_temperature;BME280_humidity;BME280_pressure;Samples;Min_cycle;Max_cycle;Signal;HPM_P1;HPM_P2
2020/12/15 00:01:56;;;;;;;15.55;8.52;;;;;;;14.08;59.94;100717.91;5082565;28;20054;-70
2020/12/15 00:04:23;;;;;;;11.27;7.30;;;;;;;14.02;60.14;100725.88;5067748;28;20063;-71
2020/12/15 00:06:49;;;;;;;12.52;8.05;;;;;;;13.57;61.46;100725.34;5066937;28;20035;-70
2020/12/15 00:09:14;;;;;;;12.52;7.78;;;;;;;13.84;60.94;100722.03;5065244;28;20025;-70
2020/12/15 00:11:40;;;;;;;10.70;8.23;;;;;;;13.94;60.44;100721.78;5067669;28;20106;-70
2020/12/15 00:14:06;;;;;;;12.88;7.78;;;;;;;13.95;60.39;100726.94;5065320;28;20029;-70
2020/12/15 00:16:32;;;;;;;13.52;7.93;;;;;;;14.02;60.03;100719.81;5067559;28;20036;-70
2020/12/15 00:18:57;;;;;;;17.65;8.45;;;;;;;13.92;60.46;100724.41;5069290;28;20055;-70
2020/12/15 00:21:25;;;;;;;12.90;8.40;;;;;;;13.99;60.25;100725.09;5071162;28;20078;-71
2020/12/15 00:23:53;;;;;;;13.52;7.97;;;;;;;13.18;62.75;100720.22;5071641;28;20420;-70
2020/12/15 00:26:19;;;;;;;16.00;8.68;;;;;;;13.86;60.88;100717.66;5057270;28;20040;-70
2020/12/15 00:28:45;;;;;;;13.00;7.32;;;;;;;14.08;59.85;100720.50;5068947;28;20409;-70
2020/12/15 00:31:11;;;;;;;10.40;6.88;;;;;;;14.01;59.99;100718.13;5070409;28;20028;-70
2020/12/15 00:33:36;;;;;;;14.13;8.65;;;;;;;13.80;60.61;100720.41;5066137;28;20036;-70
2020/12/15 00:36:03;;;;;;;12.65;7.93;;;;;;;13.91;60.41;100718.38;5069946;28;20033;-70
2020/12/15 00:38:28;;;;;;;11.55;7.38;;;;;;;14.14;59.89;100719.50;5070043;28;20075;-71
2020/12/15 00:40:54;;;;;;;15.40;8.27;;;;;;;13.94;60.36;100721.78;5072476;28;20056;-70
2020/12/15 00:43:19;;;;;;;16.48;8.73;;;;;;;14.04;60.02;100715.44;5087790;28;20111;-70
2020/12/15 00:45:45;;;;;;;12.20;7.63;;;;;;;13.98;60.29;100720.81;5075972;28;20038;-70
2020/12/15 00:48:11;;;;;;;14.25;8.60;;;;;;;13.81;60.45;100714.31;5070894;28;20119;-70
2020/12/15 00:50:37;;;;;;;16.48;8.68;;;;;;;13.93;60.33;100714.88;5087273;28;20020;-70
2020/12/15 00:53:03;;;;;;;13.48;8.52;;;;;;;13.75;60.96;100709.28;5070552;28;20063;-71
2020/12/15 00:55:28;;;;;;;15.00;8.98;;;;;;;13.67;60.91;100719.03;5088614;28;20024;-71
2020/12/15 00:57:54;;;;;;;17.17;9.05;;;;;;;13.49;61.49;100704.78;5089419;28;20029;-71
2020/12/15 01:00:20;;;;;;;12.93;9.30;;;;;;;13.91;60.23;100718.38;5088732;28;20438;-71
2020/12/15 01:02:46;;;;;;;13.88;9.23;;;;;;;13.82;60.60;100716.03;5060547;28;20513;-71
2020/12/15 01:05:12;;;;;;;16.58;8.88;;;;;;;13.81;60.50;100709.13;5070275;28;20032;-71
2020/12/15 01:07:40;;;;;;;15.38;8.15;;;;;;;13.69;60.94;100706.88;5072340;28;20017;-71
2020/12/15 01:10:06;;;;;;;15.93;10.05;;;;;;;13.84;60.64;100703.84;5072635;28;20093;-71
2020/12/15 01:12:36;;;;;;;15.50;8.07;;;;;;;14.02;59.89;100709.41;5072911;28;20028;-71
2020/12/15 01:15:04;;;;;;;12.52;8.68;;;;;;;13.67;61.34;100696.50;5071874;28;20020;-71
2020/12/15 01:17:29;;;;;;;13.48;9.27;;;;;;;14.04;59.83;100692.03;5069827;28;20046;-71
2020/12/15 01:19:57;;;;;;;14.40;9.43;;;;;;;14.00;60.08;100695.63;5091245;28;20028;-71
2020/12/15 01:22:22;;;;;;;15.38;8.75;;;;;;;13.86;60.66;100691.69;5071517;28;20036;-71
2020/12/15 01:24:49;;;;;;;11.70;8.25;;;;;;;13.87;60.29;100688.19;5070777;28;20021;-71
2020/12/15 01:27:22;;;;;;;13.35;8.55;;;;;;;13.85;60.49;100687.34;5055511;28;20017;-71
2020/12/15 01:30:04;;;;;;;13.27;8.00;;;;;;;13.73;61.04;100686.84;5071349;28;20058;-70
2020/12/15 01:32:48;;;;;;;13.70;9.00;;;;;;;13.95;60.46;100676.72;5071163;28;20097;-71
2020/12/15 01:35:18;;;;;;;17.67;9.57;;;;;;;13.68;61.38;100685.22;5086351;28;20029;-71
2020/12/15 01:37:46;;;;;;;14.88;8.32;;;;;;;13.78;60.78;100674.59;5070063;28;20494;-70
2020/12/15 01:40:18;;;;;;;16.08;9.70;;;;;;;14.06;60.18;100672.06;5069120;28;20121;-71
2020/12/15 01:42:44;;;;;;;15.25;8.43;;;;;;;14.01;60.08;100666.16;5053533;28;20087;-70
2020/12/15 01:45:09;;;;;;;12.68;8.35;;;;;;;13.93;60.32;100655.97;5076699;28;20032;-71
2020/12/15 01:47:35;;;;;;;13.48;8.57;;;;;;;13.78;60.87;100665.06;5071357;28;20032;-70
2020/12/15 01:50:03;;;;;;;11.38;8.35;;;;;;;14.07;59.43;100676.38;5084890;28;20032;-71
2020/12/15 01:52:31;;;;;;;15.55;8.38;;;;;;;14.21;59.61;100674.22;5067186;28;20482;-71
2020/12/15 01:54:59;;;;;;;14.07;9.00;;;;;;;14.04;59.95;100672.13;5087710;28;20036;-70
2020/12/15 01:57:43;;;;;;;10.98;8.55;;;;;;;14.14;59.77;100672.69;5086475;28;20029;-71
2020/12/15 02:00:19;;;;;;;14.20;8.52;;;;;;;14.01;59.90;100668.75;5069229;28;20050;-70
2020/12/15 02:03:00;;;;;;;13.70;9.45;;;;;;;14.07;60.07;100671.19;5069325;28;20535;-71
2020/12/15 02:05:45;;;;;;;13.20;8.52;;;;;;;13.63;61.13;100675.84;5069876;28;20096;-71
2020/12/15 02:08:12;;;;;;;14.02;8.93;;;;;;;13.62;61.40;100674.13;5068539;28;20263;-71
2020/12/15 02:10:38;;;;;;;13.10;8.32;;;;;;;13.84;60.72;100675.28;5067364;28;20033;-70
2020/12/15 02:13:22;;;;;;;11.23;8.20;;;;;;;13.77;60.99;100673.72;5054110;28;20037;-70
2020/12/15 02:15:49;;;;;;;14.30;8.73;;;;;;;13.69;61.14;100654.91;5084110;28;20028;-71
2020/12/15 02:18:15;;;;;;;12.73;7.90;;;;;;;13.72;61.00;100657.41;5067189;28;20037;-70
2020/12/15 02:20:45;;;;;;;12.02;8.35;;;;;;;13.47;61.33;100659.81;5068232;28;20038;-70
2020/12/15 02:23:31;;;;;;;14.45;9.85;;;;;;;13.58;61.69;100662.16;5052877;28;20089;-71
2020/12/15 02:26:09;;;;;;;11.18;8.15;;;;;;;13.62;61.62;100658.53;5067838;28;20542;-71
2020/12/15 02:28:36;;;;;;;13.75;8.93;;;;;;;13.74;61.14;100659.97;5067137;28;20024;-70
2020/12/15 02:31:02;;;;;;;12.23;8.32;;;;;;;13.81;60.85;100659.75;5068205;28;20029;-71
2020/12/15 02:33:37;;;;;;;12.10;8.07;;;;;;;13.30;62.37;100655.06;5085543;28;20032;-72
2020/12/15 02:36:03;;;;;;;12.50;7.72;;;;;;;13.84;61.07;100659.69;5066439;28;20028;-70
2020/12/15 02:38:31;;;;;;;13.27;8.15;;;;;;;13.93;60.46;100657.72;5069153;28;20032;-71
2020/12/15 02:40:57;;;;;;;11.60;7.63;;;;;;;13.22;62.83;100660.44;5068343;28;20047;-71
2020/12/15 02:43:49;;;;;;;11.77;7.57;;;;;;;13.90;60.60;100658.66;5070387;28;20048;-70
2020/12/15 02:46:18;;;;;;;10.55;7.25;;;;;;;13.97;60.49;100661.94;5083841;28;20024;-70
2020/12/15 02:48:44;;;;;;;11.82;7.78;;;;;;;13.97;60.38;100654.97;5067052;28;20032;-71
2020/12/15 02:51:13;;;;;;;12.40;8.38;;;;;;;13.91;60.41;100656.03;5067944;28;20024;-72
2020/12/15 02:53:57;;;;;;;10.85;6.53;;;;;;;13.80;60.90;100658.06;5066728;28;20097;-71
2020/12/15 02:56:25;;;;;;;12.23;6.85;;;;;;;13.86;60.75;100657.91;5066602;28;20033;-72
2020/12/15 02:58:52;;;;;;;10.38;6.70;;;;;;;14.00;60.44;100657.50;5066093;28;20115;-70
2020/12/15 03:01:20;;;;;;;11.85;7.45;;;;;;;13.84;61.02;100657.09;5068363;28;20059;-70
2020/12/15 03:03:49;;;;;;;11.30;6.63;;;;;;;13.80;60.89;100649.44;5079927;28;20099;-70
2020/12/15 03:06:24;;;;;;;9.25;6.72;;;;;;;13.77;61.15;100652.94;5066992;28;20187;-70
2020/12/15 03:08:52;;;;;;;11.43;7.50;;;;;;;13.80;60.66;100658.06;5063078;28;20024;-71
2020/12/15 03:11:21;;;;;;;9.77;6.53;;;;;;;13.20;62.50;100646.63;5060542;28;20056;-71
2020/12/15 03:13:47;;;;;;;13.68;7.63;;;;;;;13.38;62.26;100654.88;5062283;28;20115;-71
2020/12/15 03:16:12;;;;;;;12.80;7.15;;;;;;;13.58;61.78;100642.22;5065960;28;20198;-71
2020/12/15 03:18:38;;;;;;;11.68;7.30;;;;;;;13.79;60.92;100645.13;5081491;28;20032;-71
2020/12/15 03:21:05;;;;;;;9.63;6.68;;;;;;;13.38;62.11;100645.34;5065690;28;20013;-70
2020/12/15 03:23:32;;;;;;;7.85;6.22;;;;;;;13.52;61.76;100652.75;5061960;28;20040;-71
2020/12/15 03:25:58;;;;;;;11.60;7.13;;;;;;;13.52;61.69;100651.91;5064398;28;20107;-71
2020/12/15 03:28:24;;;;;;;13.50;6.93;;;;;;;13.70;61.15;100651.41;5050041;28;20020;-71
2020/12/15 03:30:55;;;;;;;10.43;6.97;;;;;;;13.82;60.28;100656.28;5083941;28;20036;-70
2020/12/15 03:33:21;;;;;;;9.95;7.20;;;;;;;13.71;60.85;100655.72;5083310;28;20082;-71
2020/12/15 03:35:49;;;;;;;10.48;7.28;;;;;;;13.69;60.85;100655.75;5066696;28;20032;-71
2020/12/15 03:38:19;;;;;;;11.98;7.45;;;;;;;13.75;60.30;100654.72;5082637;28;20036;-71
2020/12/15 03:40:55;;;;;;;14.18;7.82;;;;;;;13.57;60.97;100650.03;5088633;28;20055;-71
2020/12/15 03:43:36;;;;;;;12.02;7.90;;;;;;;13.48;60.66;100646.81;5067005;28;20035;-71
2020/12/15 03:46:17;;;;;;;12.45;7.20;;;;;;;13.49;60.69;100642.47;5083178;28;20032;-72
2020/12/15 03:48:43;;;;;;;11.45;8.25;;;;;;;13.46;60.93;100643.41;5067763;28;20036;-70
2020/12/15 03:51:09;;;;;;;12.57;7.72;;;;;;;13.49;60.88;100642.47;5067604;28;20033;-70
2020/12/15 03:53:57;;;;;;;12.55;8.07;;;;;;;13.56;60.59;100633.63;5068019;28;20818;-70
2020/12/15 03:56:24;;;;;;;14.60;8.13;;;;;;;13.47;60.55;100649.44;5070584;28;20052;-71
2020/12/15 03:58:50;;;;;;;12.43;8.55;;;;;;;13.38;60.68;100641.91;5070400;28;20115;-70
2020/12/15 04:01:16;;;;;;;14.15;8.13;;;;;;;13.46;60.30;100627.81;5069118;28;20064;-71
2020/12/15 04:03:41;;;;;;;12.95;8.07;;;;;;;13.06;61.68;100630.53;5088256;28;20028;-71
2020/12/15 04:06:15;;;;;;;14.20;7.38;;;;;;;13.37;60.55;100629.78;5070556;28;20144;-71
2020/12/15 04:08:48;;;;;;;10.55;8.00;;;;;;;13.21;60.93;100631.91;5071694;28;20025;-71
2020/12/15 04:11:15;;;;;;;13.15;7.53;;;;;;;13.27;60.55;100632.59;5068485;28;20032;-71
2020/12/15 04:13:46;;;;;;;11.43;8.20;;;;;;;13.25;60.90;100638.72;5087659;28;20024;-70
2020/12/15 04:16:14;;;;;;;12.73;7.28;;;;;;;13.16;61.06;100631.19;5085805;28;20085;-71
2020/12/15 04:18:50;;;;;;;12.07;7.85;;;;;;;13.06;60.84;100622.75;5070034;28;20028;-70
2020/12/15 04:21:17;;;;;;;10.35;6.93;;;;;;;13.19;60.81;100634.53;5051952;28;20033;-70
2020/12/15 04:23:44;;;;;;;12.20;8.75;;;;;;;13.28;60.16;100641.25;5070445;28;20087;-72
2020/12/15 04:26:12;;;;;;;12.75;8.65;;;;;;;13.26;60.26;100640.41;5070060;28;20059;-71
2020/12/15 04:28:46;;;;;;;12.20;8.73;;;;;;;12.70;62.02;100645.25;5070340;28;20052;-70
2020/12/15 04:31:12;;;;;;;12.80;7.75;;;;;;;13.11;60.59;100640.84;5070857;28;20032;-70
2020/12/15 04:33:38;;;;;;;12.95;7.85;;;;;;;13.28;60.20;100643.84;5070710;28;20033;-70
2020/12/15 04:36:04;;;;;;;17.23;8.35;;;;;;;13.35;59.89;100657.53;5067072;28;20068;-71
2020/12/15 04:38:31;;;;;;;10.57;7.22;;;;;;;13.21;60.36;100657.88;5072002;28;20032;-71
2020/12/15 04:41:04;;;;;;;11.95;7.82;;;;;;;12.61;61.84;100657.56;5072102;28;20044;-71
2020/12/15 04:43:41;;;;;;;12.43;6.70;;;;;;;12.56;62.21;100668.91;5070084;28;20024;-71
2020/12/15 04:46:12;;;;;;;9.50;6.93;;;;;;;12.73;61.65;100673.72;5070291;28;20570;-71
2020/12/15 04:48:47;;;;;;;14.18;7.68;;;;;;;13.09;60.85;100675.44;5070031;28;20464;-71
2020/12/15 04:51:21;;;;;;;10.68;8.18;;;;;;;12.85;61.69;100673.44;5067455;28;20024;-71
2020/12/15 04:54:01;;;;;;;22.10;9.38;;;;;;;12.92;61.10;100675.00;5067107;28;20032;-71
2020/12/15 04:56:49;;;;;;;9.82;7.40;;;;;;;13.03;60.72;100664.34;5065960;28;20032;-71
2020/12/15 04:59:33;;;;;;;11.15;7.07;;;;;;;13.04;60.98;100672.13;5087271;28;20860;-71
2020/12/15 05:02:09;;;;;;;13.55;7.32;;;;;;;13.04;60.55;100661.75;5067580;28;20032;-71
2020/12/15 05:04:39;;;;;;;14.00;7.72;;;;;;;13.17;60.11;100651.03;5087504;28;20104;-71
2020/12/15 05:07:08;;;;;;;17.65;8.27;;;;;;;12.86;61.35;100659.59;5068852;28;20024;-71
2020/12/15 05:10:03;;;;;;;8.90;6.63;;;;;;;12.82;61.20;100665.75;5006465;28;20490;-71
2020/12/15 05:12:51;;;;;;;11.82;6.93;;;;;;;13.07;60.53;100656.47;5070829;28;20044;-71
2020/12/15 05:15:18;;;;;;;11.82;7.93;;;;;;;13.12;60.42;100660.69;5070114;28;20036;-71
2020/12/15 05:17:46;;;;;;;10.77;7.28;;;;;;;13.29;59.88;100661.16;5068269;28;20048;-71
2020/12/15 05:20:28;;;;;;;13.45;8.00;;;;;;;13.42;59.77;100665.16;5085927;28;20406;-70
2020/12/15 05:23:01;;;;;;;11.23;7.30;;;;;;;12.99;60.87;100660.97;5084857;28;20032;-70
2020/12/15 05:25:35;;;;;;;10.75;7.68;;;;;;;13.27;60.02;100668.09;5067599;28;20028;-71
2020/12/15 05:28:12;;;;;;;12.27;7.15;;;;;;;12.66;61.73;100666.09;5065918;28;20094;-71
2020/12/15 05:30:40;;;;;;;11.45;8.15;;;;;;;13.07;60.65;100674.63;5068412;28;20035;-70
2020/12/15 05:33:24;;;;;;;11.52;7.20;;;;;;;13.06;60.52;100670.34;5068760;28;20101;-71
2020/12/15 05:36:20;;;;;;;9.55;6.65;;;;;;;13.12;60.33;100671.91;5041105;28;20036;-71
2020/12/15 05:39:14;;;;;;;9.63;7.32;;;;;;;12.98;60.73;100667.06;5072060;28;20037;-71
2020/12/15 05:42:05;;;;;;;10.45;7.35;;;;;;;13.20;60.24;100669.16;5070245;28;20028;-71
2020/12/15 05:44:34;;;;;;;11.32;6.65;;;;;;;12.95;60.79;100667.16;5051602;28;20116;-71
2020/12/15 05:47:07;;;;;;;10.68;6.93;;;;;;;13.00;60.64;100665.28;5068157;28;20032;-71
2020/12/15 05:49:41;;;;;;;13.10;7.72;;;;;;;12.84;61.17;100671.75;5067019;28;20035;-71
2020/12/15 05:52:09;;;;;;;11.77;7.90;;;;;;;13.02;60.63;100676.50;5069373;28;20029;-71
2020/12/15 05:54:35;;;;;;;12.13;7.30;;;;;;;13.20;60.30;100670.00;5069676;28;20067;-71
2020/12/15 05:57:07;;;;;;;9.10;7.25;;;;;;;12.62;62.02;100676.56;5070349;28;20404;-71
2020/12/15 05:59:34;;;;;;;8.30;5.68;;;;;;;13.06;60.72;100672.94;5064219;28;20051;-71
2020/12/15 06:02:18;;;;;;;10.20;6.97;;;;;;;12.96;61.07;100681.81;5085761;28;20024;-71
2020/12/15 06:04:43;;;;;;;11.35;7.88;;;;;;;12.82;61.27;100681.31;5068652;28;20036;-71
2020/12/15 06:07:10;;;;;;;9.88;7.10;;;;;;;12.85;61.20;100678.63;5069524;28;20029;-71
2020/12/15 06:09:36;;;;;;;13.10;7.25;;;;;;;12.84;61.27;100689.91;5065320;28;20067;-71
2020/12/15 06:12:04;;;;;;;13.70;7.75;;;;;;;12.84;61.48;100689.91;5066586;28;20036;-71
2020/12/15 06:14:29;;;;;;;13.15;7.70;;;;;;;13.23;60.40;100692.41;5084806;28;20035;-71
2020/12/15 06:16:55;;;;;;;10.07;6.65;;;;;;;13.05;60.80;100686.78;5066010;28;20024;-71
2020/12/15 06:19:22;;;;;;;15.88;7.32;;;;;;;12.95;60.98;100687.91;5084552;28;20037;-70
2020/12/15 06:21:49;;;;;;;10.57;7.43;;;;;;;13.05;60.62;100686.78;5065445;28;20028;-72
2020/12/15 06:24:38;;;;;;;15.18;8.52;;;;;;;12.98;61.19;100690.41;5084744;28;20116;-71
2020/12/15 06:27:06;;;;;;;11.75;7.50;;;;;;;13.15;60.31;100683.97;5064865;28;20035;-71
2020/12/15 06:29:39;;;;;;;11.95;7.57;;;;;;;12.98;60.84;100679.19;5069338;28;20039;-71
2020/12/15 06:32:16;;;;;;;11.95;7.90;;;;;;;13.06;60.86;100690.22;5068860;28;20040;-71
2020/12/15 06:34:43;;;;;;;11.85;8.23;;;;;;;13.12;60.76;100686.63;5068871;28;20032;-70
2020/12/15 06:37:09;;;;;;;11.30;7.72;;;;;;;12.98;60.78;100684.38;5071993;28;20777;-71
2020/12/15 06:39:34;;;;;;;13.90;9.02;;;;;;;12.56;62.44;100685.31;5066907;28;20036;-72
2020/12/15 06:42:02;;;;;;;10.25;7.72;;;;;;;12.82;62.18;100681.31;5065091;28;20147;-71
2020/12/15 06:44:33;;;;;;;14.05;6.97;;;;;;;13.08;60.89;100680.66;5083566;28;20043;-71
2020/12/15 06:47:00;;;;;;;11.93;7.47;;;;;;;13.01;60.93;100685.16;5066526;28;20081;-71
2020/12/15 06:49:33;;;;;;;15.93;7.72;;;;;;;12.82;61.40;100687.34;5068351;28;20044;-72
2020/12/15 06:52:03;;;;;;;11.82;8.00;;;;;;;12.98;61.37;100682.63;5066849;28;20040;-71
2020/12/15 06:54:30;;;;;;;12.40;8.07;;;;;;;13.21;60.31;100683.81;5084350;28;20441;-71
2020/12/15 06:57:00;;;;;;;11.02;7.82;;;;;;;13.11;60.85;100679.75;5066382;28;20036;-69
2020/12/15 06:59:30;;;;;;;11.63;8.40;;;;;;;13.36;60.10;100680.03;5083991;28;20039;-72
2020/12/15 07:02:16;;;;;;;14.80;9.15;;;;;;;13.15;60.98;100681.38;5067946;28;20043;-71
2020/12/15 07:04:46;;;;;;;14.02;8.20;;;;;;;13.11;60.59;100687.53;5067659;28;20029;-71
2020/12/15 07:07:13;;;;;;;10.77;8.43;;;;;;;13.15;61.03;100681.38;5062076;28;20032;-71
2020/12/15 07:09:39;;;;;;;14.77;9.15;;;;;;;13.26;60.57;100690.59;5068772;28;20120;-71
2020/12/15 07:12:12;;;;;;;15.07;8.75;;;;;;;12.97;61.59;100683.53;5068431;28;20058;-70
2020/12/15 07:14:39;;;;;;;15.55;9.02;;;;;;;13.23;60.76;100687.22;5063992;28;20037;-71
2020/12/15 07:17:05;;;;;;;13.18;9.35;;;;;;;13.07;60.92;100687.59;5050427;28;20082;-71
2020/12/15 07:19:31;;;;;;;15.60;8.85;;;;;;;12.83;61.96;100688.19;5084003;28;20025;-71
2020/12/15 07:21:56;;;;;;;14.82;9.65;;;;;;;13.25;60.91;100691.47;5067220;28;20040;-72
2020/12/15 07:24:23;;;;;;;13.75;8.40;;;;;;;13.21;60.91;100683.81;5085544;28;20067;-71
2020/12/15 07:26:48;;;;;;;14.48;9.73;;;;;;;13.09;61.23;100693.59;5067124;28;20036;-70
2020/12/15 07:29:18;;;;;;;17.20;9.93;;;;;;;13.36;60.42;100693.84;5066666;28;20041;-70
2020/12/15 07:31:44;;;;;;;13.98;9.43;;;;;;;13.26;60.93;100695.81;5070128;28;20081;-71
2020/12/15 07:34:10;;;;;;;15.85;9.32;;;;;;;13.27;60.86;100704.44;5073711;28;20020;-71
2020/12/15 07:36:38;;;;;;;20.70;12.43;;;;;;;12.99;61.48;100706.81;5090466;28;20383;-70
2020/12/15 07:39:05;;;;;;;15.15;9.98;;;;;;;13.21;60.90;100704.56;5070661;28;20032;-70
2020/12/15 07:41:36;;;;;;;19.15;10.32;;;;;;;13.06;61.38;100714.44;5072311;28;20032;-70
2020/12/15 07:44:03;;;;;;;15.77;8.13;;;;;;;13.16;61.51;100722.00;5069313;28;20418;-70
2020/12/15 07:46:29;;;;;;;16.27;10.68;;;;;;;12.79;62.55;100722.84;5072742;28;20032;-70
2020/12/15 07:48:55;;;;;;;15.55;9.80;;;;;;;13.31;61.21;100724.28;5071972;28;20115;-71
2020/12/15 07:51:20;;;;;;;17.27;10.48;;;;;;;13.34;60.97;100724.19;5054051;28;20040;-71
2020/12/15 07:53:57;;;;;;;17.80;11.00;;;;;;;13.36;61.04;100726.75;5070057;28;20032;-71
2020/12/15 07:56:23;;;;;;;13.18;9.93;;;;;;;13.02;62.10;100733.56;5072275;28;20079;-71
2020/12/15 07:58:53;;;;;;;19.10;12.85;;;;;;;13.25;61.57;100739.94;5070514;28;20028;-71
2020/12/15 08:01:20;;;;;;;22.65;14.40;;;;;;;13.38;61.07;100740.56;5073345;28;20062;-72
2020/12/15 08:03:46;;;;;;;20.55;11.90;;;;;;;13.09;61.79;100742.91;5076807;28;20032;-71
2020/12/15 08:06:12;;;;;;;16.90;12.15;;;;;;;13.05;61.98;100746.47;5076394;28;20234;-72
2020/12/15 08:08:40;;;;;;;16.08;10.68;;;;;;;13.56;60.74;100749.63;5074897;28;20475;-71
2020/12/15 08:11:18;;;;;;;18.00;10.73;;;;;;;13.25;62.00;100747.75;5069803;28;20040;-71
2020/12/15 08:13:48;;;;;;;20.02;11.57;;;;;;;13.33;61.28;100750.16;5066878;28;21590;-71
2020/12/15 08:16:15;;;;;;;17.98;12.38;;;;;;;13.44;61.29;100753.34;5069965;28;20123;-72
2020/12/15 08:18:42;;;;;;;18.67;13.05;;;;;;;13.15;62.12;100741.06;5070850;28;20039;-73
2020/12/15 08:21:14;;;;;;;20.70;11.57;;;;;;;13.47;60.91;100743.75;5088022;28;20021;-72
2020/12/15 08:23:48;;;;;;;15.90;11.02;;;;;;;13.80;60.48;100748.16;5071649;28;20478;-71
2020/12/15 08:26:17;;;;;;;16.52;9.98;;;;;;;13.95;59.71;100750.31;5067726;28;20138;-72
2020/12/15 08:28:43;;;;;;;17.08;11.48;;;;;;;13.86;60.02;100746.25;5066994;28;20044;-71
2020/12/15 08:31:10;;;;;;;17.75;11.70;;;;;;;13.91;60.22;100749.56;5067262;28;20036;-71
2020/12/15 08:33:37;;;;;;;19.33;11.20;;;;;;;13.41;61.57;100749.09;5071421;28;20032;-70
2020/12/15 08:36:04;;;;;;;21.95;12.70;;;;;;;13.10;62.55;100759.31;5069066;28;20446;-71
2020/12/15 08:38:30;;;;;;;19.30;11.15;;;;;;;13.89;60.57;100753.94;5065691;28;20051;-71
2020/12/15 08:41:00;;;;;;;18.63;11.60;;;;;;;13.82;60.83;100759.31;5069202;28;20028;-72
2020/12/15 08:43:27;;;;;;;20.48;11.80;;;;;;;13.77;60.73;100766.38;5068760;28;20028;-70
2020/12/15 08:45:53;;;;;;;17.55;11.88;;;;;;;13.52;61.41;100771.34;5067667;28;20047;-71
2020/12/15 08:48:24;;;;;;;19.75;12.43;;;;;;;13.77;60.91;100754.25;5067678;28;20036;-71
2020/12/15 08:50:51;;;;;;;25.52;11.40;;;;;;;13.38;62.05;100759.56;5065921;28;20032;-71
2020/12/15 08:53:18;;;;;;;20.73;12.20;;;;;;;13.64;61.49;100765.84;5066935;28;20034;-71
2020/12/15 08:55:48;;;;;;;17.40;11.52;;;;;;;14.03;60.65;100763.97;5067167;28;20037;-71
2020/12/15 08:58:15;;;;;;;21.38;12.65;;;;;;;14.09;60.01;100752.56;5063954;28;20124;-71
2020/12/15 09:00:43;;;;;;;22.88;13.73;;;;;;;13.43;62.44;100768.09;5083201;28;20533;-71
2020/12/15 09:03:13;;;;;;;29.95;13.75;;;;;;;14.10;60.70;100782.84;5068423;28;20009;-71
2020/12/15 09:05:48;;;;;;;22.67;12.50;;;;;;;13.88;61.16;100786.00;5063704;28;20032;-70
2020/12/15 09:08:14;;;;;;;22.35;12.98;;;;;;;13.98;60.23;100781.44;5083828;28;20069;-71
2020/12/15 09:10:39;;;;;;;20.02;11.90;;;;;;;14.32;59.93;100770.94;5069360;28;20103;-71
2020/12/15 09:13:05;;;;;;;19.80;12.57;;;;;;;14.02;60.69;100771.78;5069806;28;20106;-70
2020/12/15 09:15:31;;;;;;;23.10;12.68;;;;;;;14.06;60.50;100779.47;5068546;28;20044;-71
2020/12/15 09:17:57;;;;;;;23.33;13.65;;;;;;;14.35;59.98;100784.75;5068892;28;20025;-71
2020/12/15 09:20:26;;;;;;;21.83;14.02;;;;;;;13.40;62.20;100783.75;5070375;28;20148;-70
2020/12/15 09:22:52;;;;;;;21.08;12.23;;;;;;;13.76;61.39;100791.53;5070358;28;20031;-71
2020/12/15 09:25:19;;;;;;;23.75;13.43;;;;;;;14.10;60.62;100786.28;5067435;28;20071;-72
2020/12/15 09:27:48;;;;;;;24.15;13.45;;;;;;;13.88;60.98;100801.59;5066675;28;20032;-72
2020/12/15 09:30:19;;;;;;;22.77;13.65;;;;;;;13.94;60.91;100795.38;5066528;28;20099;-70
2020/12/15 09:32:45;;;;;;;24.15;13.63;;;;;;;14.25;60.23;100802.38;5070281;28;20725;-70
2020/12/15 09:35:12;;;;;;;24.60;14.77;;;;;;;14.15;60.35;100801.75;5067620;28;20054;-70
2020/12/15 09:37:39;;;;;;;28.88;12.88;;;;;;;14.19;60.30;100802.53;5085517;28;20029;-70
2020/12/15 09:40:08;;;;;;;21.30;13.00;;;;;;;14.43;59.47;100803.63;5063565;28;20091;-70
2020/12/15 09:42:34;;;;;;;19.23;12.18;;;;;;;14.12;59.84;100804.44;5067076;28;20024;-70
2020/12/15 09:44:59;;;;;;;19.48;12.45;;;;;;;14.10;60.33;100796.69;5083675;28;20478;-71
2020/12/15 09:47:25;;;;;;;18.17;11.52;;;;;;;14.29;60.05;100789.25;5068792;28;20028;-71
2020/12/15 09:49:51;;;;;;;21.83;12.35;;;;;;;14.47;59.59;100792.25;5066124;28;21811;-70
2020/12/15 09:52:16;;;;;;;18.15;11.80;;;;;;;14.50;59.45;100799.94;5063354;28;20032;-71
2020/12/15 09:54:42;;;;;;;20.48;13.30;;;;;;;14.42;59.42;100801.91;5068157;28;20478;-72
2020/12/15 09:57:07;;;;;;;22.83;12.82;;;;;;;14.42;59.70;100810.56;5069229;28;20078;-71
2020/12/15 09:59:33;;;;;;;24.45;12.63;;;;;;;14.25;60.09;100812.78;5066154;28;20032;-71
2020/12/15 10:01:58;;;;;;;24.52;13.10;;;;;;;14.41;59.54;100821.84;5068897;28;20029;-70
2020/12/15 10:04:24;;;;;;;23.70;13.50;;;;;;;13.95;60.82;100817.88;5065660;28;20039;-72
2020/12/15 10:06:50;;;;;;;24.35;12.32;;;;;;;13.94;61.09;100812.72;5069141;28;20024;-71
2020/12/15 10:09:16;;;;;;;27.75;11.93;;;;;;;14.21;60.18;100806.78;5049464;28;20051;-71
2020/12/15 10:11:44;;;;;;;20.50;11.35;;;;;;;14.52;59.81;100809.41;5070439;28;20051;-71
2020/12/15 10:14:10;;;;;;;21.15;12.63;;;;;;;14.33;60.34;100822.06;5068681;28;20025;-71
2020/12/15 10:16:36;;;;;;;21.80;12.13;;;;;;;14.36;59.66;100817.69;5054655;28;20418;-71
2020/12/15 10:19:02;;;;;;;21.27;12.05;;;;;;;14.03;61.26;100826.34;5073782;28;20032;-71
2020/12/15 10:21:28;;;;;;;25.73;11.75;;;;;;;14.44;59.77;100828.72;5073209;28;20029;-72
2020/12/15 10:23:53;;;;;;;28.60;12.75;;;;;;;14.51;59.45;100823.31;5088398;28;20028;-71
2020/12/15 10:26:20;;;;;;;23.95;11.88;;;;;;;14.38;60.14;100834.94;5069692;28;20224;-71
2020/12/15 10:28:46;;;;;;;24.45;12.15;;;;;;;13.73;62.02;100835.78;5073481;28;20020;-71
2020/12/15 10:31:11;;;;;;;24.83;13.20;;;;;;;14.07;60.96;100843.56;5072187;28;20055;-71
2020/12/15 10:33:36;;;;;;;27.48;12.52;;;;;;;13.77;61.61;100845.16;5075188;28;20543;-71
2020/12/15 10:36:03;;;;;;;21.40;10.45;;;;;;;14.34;59.93;100843.72;5076398;28;20114;-71
2020/12/15 10:38:29;;;;;;;20.17;11.73;;;;;;;14.22;60.38;100836.25;5075015;28;20032;-71
2020/12/15 10:40:56;;;;;;;18.77;11.65;;;;;;;14.42;59.93;100839.19;5077570;28;20088;-71
2020/12/15 10:43:21;;;;;;;20.35;11.35;;;;;;;14.59;59.70;100841.31;5076016;28;20029;-72
2020/12/15 10:45:47;;;;;;;18.67;10.77;;;;;;;14.37;59.77;100840.19;5059988;28;20028;-71
2020/12/15 10:48:13;;;;;;;19.35;11.93;;;;;;;13.84;61.68;100840.66;5074182;28;20032;-71
2020/12/15 10:50:40;;;;;;;25.70;12.32;;;;;;;14.13;60.77;100850.31;5075184;28;20036;-71
2020/12/15 10:53:08;;;;;;;20.90;12.38;;;;;;;14.49;60.02;100839.88;5076499;28;20043;-71
2020/12/15 10:55:34;;;;;;;24.42;12.27;;;;;;;14.52;59.69;100826.75;5078523;28;20043;-72
2020/12/15 10:58:00;;;;;;;21.98;12.02;;;;;;;14.51;59.52;100827.63;5075902;28;20150;-71
2020/12/15 11:00:25;;;;;;;20.48;11.80;;;;;;;14.63;59.68;100821.28;5075016;28;20034;-71
2020/12/15 11:02:51;;;;;;;21.50;11.60;;;;;;;14.61;59.58;100823.94;5075363;28;20032;-71
2020/12/15 11:05:17;;;;;;;18.10;10.93;;;;;;;14.86;58.85;100828.44;5078314;28;20032;-71
2020/12/15 11:07:42;;;;;;;25.02;12.05;;;;;;;14.68;59.15;100820.25;5071605;28;20029;-71
2020/12/15 11:10:08;;;;;;;21.17;12.57;;;;;;;14.50;59.62;100831.16;5077701;28;20660;-71
2020/12/15 11:12:33;;;;;;;27.65;12.85;;;;;;;14.47;60.19;100826.88;5071096;28;20039;-71
2020/12/15 11:14:59;;;;;;;19.80;11.23;;;;;;;14.21;60.60;100825.00;5070483;28;20025;-71
2020/12/15 11:17:24;;;;;;;24.42;11.93;;;;;;;14.25;60.84;100831.81;5068702;28;20031;-70
2020/12/15 11:19:50;;;;;;;19.50;11.27;;;;;;;14.21;61.07;100834.53;5070522;28;20520;-70
2020/12/15 11:22:15;;;;;;;25.75;11.57;;;;;;;14.33;60.71;100837.69;5070339;28;20394;-71
2020/12/15 11:24:41;;;;;;;22.70;12.07;;;;;;;13.61;62.35;100849.03;5069563;28;20407;-71